sensor_id;sensor_type;location;lat;lon;timestamp;P1;durP1;ratioP1;P2;durP2;ratioP2
8466;SDS011;4270;48.148;11.648;2022-12-07T00:01:30;12.60;;;8.10;;
8466;SDS011;4270;48.148;11.648;2022-12-07T00:03:57;13.13;;;8.90;;
8466;SDS011;4270;48.148;11.648;2022-12-07T00:06:25;16.30;;;8.97;;
8466;SDS011;4270;48.148;11.648;2022-12-07T00:08:51;12.50;;;7.83;;
8466;SDS011;4270;48.148;11.648;2022-12-07T00:11:17;17.87;;;9.50;;
8466;SDS011;4270;48.148;11.648;2022-12-07T00:13:43;15.70;;;8.83;;
8466;SDS011;4270;48.148;11.648;2022-12-07T00:16:15;15.27;;;9.03;;
8466;SDS011;4270;48.148;11.648;2022-12-07T00:18:41;13.13;;;7.90;;
8466;SDS011;4270;48.148;11.648;2022-12-07T00:21:09;14.13;;;9.63;;
8466;SDS011;4270;48.148;11.648;2022-12-07T00:23:35;15.17;;;8.33;;
8466;SDS011;4270;48.148;11.648;2022-12-07T00:26:07;12.60;;;8.50;;
8466;SDS011;4270;48.148;11.648;2022-12-07T00:28:32;15.93;;;9.43;;
8466;SDS011;4270;48.148;11.648;2022-12-07T00:31:02;15.53;;;9.40;;
8466;SDS011;4270;48.148;11.648;2022-12-07T00:33:27;13.77;;;8.93;;
8466;SDS011;4270;48.148;11.648;2022-12-07T00:35:56;12.57;;;8.17;;
8466;SDS011;4270;48.148;11.648;2022-12-07T00:38:22;15.23;;;8.80;;
8466;SDS011;4270;48.148;11.648;2022-12-07T00:40:55;10.17;;;7.63;;
8466;SDS011;4270;48.148;11.648;2022-12-07T00:43:20;12.97;;;8.37;;
8466;SDS011;4270;48.148;11.648;2022-12-07T00:45:45;12.20;;;8.43;;
8466;SDS011;4270;48.148;11.648;2022-12-07T00:48:10;14.30;;;8.50;;
8466;SDS011;4270;48.148;11.648;2022-12-07T00:50:36;11.50;;;8.20;;
8466;SDS011;4270;48.148;11.648;2022-12-07T00:53:01;12.60;;;8.60;;
8466;SDS011;4270;48.148;11.648;2022-12-07T00:55:26;13.60;;;7.93;;
8466;SDS011;4270;48.148;11.648;2022-12-07T00:57:51;14.07;;;9.10;;
8466;SDS011;4270;48.148;11.648;2022-12-07T01:00:16;12.27;;;7.83;;
8466;SDS011;4270;48.148;11.648;2022-12-07T01:02:42;12.40;;;8.03;;
8466;SDS011;4270;48.148;11.648;2022-12-07T01:05:07;11.30;;;8.50;;
8466;SDS011;4270;48.148;11.648;2022-12-07T01:07:32;11.83;;;8.23;;
8466;SDS011;4270;48.148;11.648;2022-12-07T01:09:57;14.10;;;8.57;;
8466;SDS011;4270;48.148;11.648;2022-12-07T01:12:22;11.73;;;8.33;;
8466;SDS011;4270;48.148;11.648;2022-12-07T01:14:48;11.83;;;7.80;;
8466;SDS011;4270;48.148;11.648;2022-12-07T01:17:13;12.50;;;8.00;;
8466;SDS011;4270;48.148;11.648;2022-12-07T01:19:38;13.00;;;8.50;;
8466;SDS011;4270;48.148;11.648;2022-12-07T01:22:03;18.50;;;9.47;;
8466;SDS011;4270;48.148;11.648;2022-12-07T01:24:28;12.37;;;9.00;;
8466;SDS011;4270;48.148;11.648;2022-12-07T01:26:53;11.60;;;7.00;;
8466;SDS011;4270;48.148;11.648;2022-12-07T01:29:19;13.37;;;8.00;;
8466;SDS011;4270;48.148;11.648;2022-12-07T01:31:44;10.90;;;7.93;;
8466;SDS011;4270;48.148;11.648;2022-12-07T01:34:09;13.23;;;8.57;;
8466;SDS011;4270;48.148;11.648;2022-12-07T01:36:35;13.40;;;8.73;;
8466;SDS011;4270;48.148;11.648;2022-12-07T01:39:02;12.03;;;8.30;;
8466;SDS011;4270;48.148;11.648;2022-12-07T01:41:29;12.10;;;7.67;;
8466;SDS011;4270;48.148;11.648;2022-12-07T01:46:33;12.30;;;7.23;;
8466;SDS011;4270;48.148;11.648;2022-12-07T01:48:58;11.07;;;7.30;;
8466;SDS011;4270;48.148;11.648;2022-12-07T01:51:23;12.47;;;8.07;;
8466;SDS011;4270;48.148;11.648;2022-12-07T01:53:49;15.70;;;8.40;;
8466;SDS011;4270;48.148;11.648;2022-12-07T01:56:15;16.07;;;9.47;;
8466;SDS011;4270;48.148;11.648;2022-12-07T01:58:42;15.27;;;8.90;;
8466;SDS011;4270;48.148;11.648;2022-12-07T02:01:07;11.10;;;8.00;;
8466;SDS011;4270;48.148;11.648;2022-12-07T02:03:36;13.87;;;7.73;;
8466;SDS011;4270;48.148;11.648;2022-12-07T02:06:02;10.80;;;8.10;;
8466;SDS011;4270;48.148;11.648;2022-12-07T02:08:29;18.83;;;9.13;;
8466;SDS011;4270;48.148;11.648;2022-12-07T02:10:54;11.10;;;7.57;;
8466;SDS011;4270;48.148;11.648;2022-12-07T02:13:21;13.80;;;8.23;;
8466;SDS011;4270;48.148;11.648;2022-12-07T02:18:23;11.00;;;7.40;;
8466;SDS011;4270;48.148;11.648;2022-12-07T02:31:20;12.67;;;8.17;;
8466;SDS011;4270;48.148;11.648;2022-12-07T02:33:50;12.53;;;8.20;;
8466;SDS011;4270;48.148;11.648;2022-12-07T02:36:18;12.90;;;8.77;;
8466;SDS011;4270;48.148;11.648;2022-12-07T02:38:58;13.83;;;8.90;;
8466;SDS011;4270;48.148;11.648;2022-12-07T02:41:26;14.00;;;8.10;;
8466;SDS011;4270;48.148;11.648;2022-12-07T02:43:54;12.37;;;8.50;;
8466;SDS011;4270;48.148;11.648;2022-12-07T02:46:22;14.80;;;9.03;;
8466;SDS011;4270;48.148;11.648;2022-12-07T02:48:48;12.27;;;8.50;;
8466;SDS011;4270;48.148;11.648;2022-12-07T02:51:14;12.70;;;7.97;;
8466;SDS011;4270;48.148;11.648;2022-12-07T02:53:42;14.47;;;8.77;;
8466;SDS011;4270;48.148;11.648;2022-12-07T02:56:12;15.73;;;8.60;;
8466;SDS011;4270;48.148;11.648;2022-12-07T03:03:53;13.43;;;9.10;;
8466;SDS011;4270;48.148;11.648;2022-12-07T03:06:26;13.83;;;9.00;;
8466;SDS011;4270;48.148;11.648;2022-12-07T03:08:58;11.83;;;8.10;;
8466;SDS011;4270;48.148;11.648;2022-12-07T03:14:03;16.05;;;8.38;;
8466;SDS011;4270;48.148;11.648;2022-12-07T03:16:33;12.90;;;8.63;;
8466;SDS011;4270;48.148;11.648;2022-12-07T03:21:56;13.93;;;8.40;;
8466;SDS011;4270;48.148;11.648;2022-12-07T03:24:24;12.07;;;8.93;;
8466;SDS011;4270;48.148;11.648;2022-12-07T03:26:52;13.30;;;8.47;;
8466;SDS011;4270;48.148;11.648;2022-12-07T03:29:29;12.80;;;8.70;;
8466;SDS011;4270;48.148;11.648;2022-12-07T03:31:58;13.10;;;8.73;;
8466;SDS011;4270;48.148;11.648;2022-12-07T03:34:36;13.73;;;9.20;;
8466;SDS011;4270;48.148;11.648;2022-12-07T03:37:05;13.33;;;9.30;;
8466;SDS011;4270;48.148;11.648;2022-12-07T03:39:39;13.30;;;8.53;;
8466;SDS011;4270;48.148;11.648;2022-12-07T03:42:06;14.50;;;9.83;;
8466;SDS011;4270;48.148;11.648;2022-12-07T03:44:33;14.53;;;8.97;;
8466;SDS011;4270;48.148;11.648;2022-12-07T03:49:37;13.20;;;8.60;;
8466;SDS011;4270;48.148;11.648;2022-12-07T03:54:48;13.17;;;9.07;;
8466;SDS011;4270;48.148;11.648;2022-12-07T03:57:16;13.80;;;9.73;;
8466;SDS011;4270;48.148;11.648;2022-12-07T03:59:42;12.23;;;8.90;;
8466;SDS011;4270;48.148;11.648;2022-12-07T04:02:08;15.77;;;8.67;;
8466;SDS011;4270;48.148;11.648;2022-12-07T04:04:36;14.57;;;8.83;;
8466;SDS011;4270;48.148;11.648;2022-12-07T04:07:01;13.27;;;8.37;;
8466;SDS011;4270;48.148;11.648;2022-12-07T04:09:26;13.73;;;8.97;;
8466;SDS011;4270;48.148;11.648;2022-12-07T04:11:52;15.40;;;10.03;;
8466;SDS011;4270;48.148;11.648;2022-12-07T04:14:17;15.03;;;8.83;;
8466;SDS011;4270;48.148;11.648;2022-12-07T04:16:45;13.60;;;9.00;;
8466;SDS011;4270;48.148;11.648;2022-12-07T04:19:11;11.93;;;8.50;;
8466;SDS011;4270;48.148;11.648;2022-12-07T04:21:36;14.83;;;8.77;;
8466;SDS011;4270;48.148;11.648;2022-12-07T04:24:02;15.30;;;9.83;;
8466;SDS011;4270;48.148;11.648;2022-12-07T04:26:27;14.67;;;9.87;;
8466;SDS011;4270;48.148;11.648;2022-12-07T04:28:52;14.50;;;10.30;;
8466;SDS011;4270;48.148;11.648;2022-12-07T04:31:17;18.23;;;10.27;;
8466;SDS011;4270;48.148;11.648;2022-12-07T04:33:43;13.60;;;9.40;;
8466;SDS011;4270;48.148;11.648;2022-12-07T04:36:08;14.83;;;9.07;;
8466;SDS011;4270;48.148;11.648;2022-12-07T04:38:33;17.57;;;10.30;;
8466;SDS011;4270;48.148;11.648;2022-12-07T04:40:58;13.90;;;9.50;;
8466;SDS011;4270;48.148;11.648;2022-12-07T04:43:28;13.87;;;10.20;;
8466;SDS011;4270;48.148;11.648;2022-12-07T04:45:53;16.47;;;10.50;;
8466;SDS011;4270;48.148;11.648;2022-12-07T04:48:19;15.57;;;9.73;;
8466;SDS011;4270;48.148;11.648;2022-12-07T04:50:44;16.50;;;9.83;;
8466;SDS011;4270;48.148;11.648;2022-12-07T04:53:09;16.07;;;10.10;;
8466;SDS011;4270;48.148;11.648;2022-12-07T04:55:34;13.80;;;9.33;;
8466;SDS011;4270;48.148;11.648;2022-12-07T04:57:59;19.00;;;11.53;;
8466;SDS011;4270;48.148;11.648;2022-12-07T05:00:25;16.83;;;11.50;;
8466;SDS011;4270;48.148;11.648;2022-12-07T05:02:50;16.73;;;10.10;;
8466;SDS011;4270;48.148;11.648;2022-12-07T05:05:15;19.33;;;11.47;;
8466;SDS011;4270;48.148;11.648;2022-12-07T05:07:40;18.00;;;10.63;;
8466;SDS011;4270;48.148;11.648;2022-12-07T05:10:05;15.50;;;9.87;;
8466;SDS011;4270;48.148;11.648;2022-12-07T05:12:31;15.67;;;10.23;;
8466;SDS011;4270;48.148;11.648;2022-12-07T05:14:56;16.83;;;10.20;;
8466;SDS011;4270;48.148;11.648;2022-12-07T05:17:21;17.80;;;11.07;;
8466;SDS011;4270;48.148;11.648;2022-12-07T05:19:46;17.63;;;11.80;;
8466;SDS011;4270;48.148;11.648;2022-12-07T05:22:11;17.80;;;10.57;;
8466;SDS011;4270;48.148;11.648;2022-12-07T05:24:38;13.70;;;9.50;;
8466;SDS011;4270;48.148;11.648;2022-12-07T05:27:03;15.80;;;11.30;;
8466;SDS011;4270;48.148;11.648;2022-12-07T05:29:28;14.83;;;10.27;;
8466;SDS011;4270;48.148;11.648;2022-12-07T05:31:53;18.63;;;10.17;;
8466;SDS011;4270;48.148;11.648;2022-12-07T05:34:19;21.93;;;12.80;;
8466;SDS011;4270;48.148;11.648;2022-12-07T05:36:44;24.07;;;11.80;;
8466;SDS011;4270;48.148;11.648;2022-12-07T05:39:09;17.87;;;10.50;;
8466;SDS011;4270;48.148;11.648;2022-12-07T05:41:35;16.37;;;10.07;;
8466;SDS011;4270;48.148;11.648;2022-12-07T05:44:19;15.23;;;9.90;;
8466;SDS011;4270;48.148;11.648;2022-12-07T05:46:44;17.10;;;10.87;;
8466;SDS011;4270;48.148;11.648;2022-12-07T05:49:09;16.20;;;11.33;;
8466;SDS011;4270;48.148;11.648;2022-12-07T05:51:34;14.83;;;9.13;;
8466;SDS011;4270;48.148;11.648;2022-12-07T05:53:59;15.07;;;10.60;;
8466;SDS011;4270;48.148;11.648;2022-12-07T05:56:25;12.33;;;8.53;;
8466;SDS011;4270;48.148;11.648;2022-12-07T05:58:51;15.10;;;9.27;;
8466;SDS011;4270;48.148;11.648;2022-12-07T06:01:35;14.33;;;9.23;;
8466;SDS011;4270;48.148;11.648;2022-12-07T06:04:00;13.83;;;9.00;;
8466;SDS011;4270;48.148;11.648;2022-12-07T06:06:25;14.20;;;9.17;;
8466;SDS011;4270;48.148;11.648;2022-12-07T06:08:50;16.17;;;9.53;;
8466;SDS011;4270;48.148;11.648;2022-12-07T06:11:16;15.63;;;8.80;;
8466;SDS011;4270;48.148;11.648;2022-12-07T06:14:00;14.63;;;9.40;;
8466;SDS011;4270;48.148;11.648;2022-12-07T06:16:25;15.30;;;9.37;;
8466;SDS011;4270;48.148;11.648;2022-12-07T06:18:50;12.63;;;8.60;;
8466;SDS011;4270;48.148;11.648;2022-12-07T06:21:15;17.33;;;10.07;;
8466;SDS011;4270;48.148;11.648;2022-12-07T06:23:40;15.43;;;9.77;;
8466;SDS011;4270;48.148;11.648;2022-12-07T06:26:06;12.60;;;9.53;;
8466;SDS011;4270;48.148;11.648;2022-12-07T06:28:31;14.97;;;9.57;;
8466;SDS011;4270;48.148;11.648;2022-12-07T06:31:00;16.20;;;10.83;;
8466;SDS011;4270;48.148;11.648;2022-12-07T06:33:26;15.80;;;10.80;;
8466;SDS011;4270;48.148;11.648;2022-12-07T06:35:51;20.10;;;11.03;;
8466;SDS011;4270;48.148;11.648;2022-12-07T06:38:16;14.97;;;10.20;;
8466;SDS011;4270;48.148;11.648;2022-12-07T06:40:41;15.23;;;10.97;;
8466;SDS011;4270;48.148;11.648;2022-12-07T06:43:06;16.13;;;10.93;;
8466;SDS011;4270;48.148;11.648;2022-12-07T06:45:32;16.57;;;10.90;;
8466;SDS011;4270;48.148;11.648;2022-12-07T06:47:57;18.80;;;11.03;;
8466;SDS011;4270;48.148;11.648;2022-12-07T06:50:23;15.67;;;10.50;;
8466;SDS011;4270;48.148;11.648;2022-12-07T06:52:48;17.53;;;11.40;;
8466;SDS011;4270;48.148;11.648;2022-12-07T06:55:13;18.10;;;12.63;;
8466;SDS011;4270;48.148;11.648;2022-12-07T06:57:38;18.93;;;11.40;;
8466;SDS011;4270;48.148;11.648;2022-12-07T07:00:04;17.10;;;10.90;;
8466;SDS011;4270;48.148;11.648;2022-12-07T07:02:29;17.47;;;10.90;;
8466;SDS011;4270;48.148;11.648;2022-12-07T07:04:57;14.47;;;9.60;;
8466;SDS011;4270;48.148;11.648;2022-12-07T07:07:22;16.43;;;10.20;;
8466;SDS011;4270;48.148;11.648;2022-12-07T07:09:50;15.10;;;9.90;;
8466;SDS011;4270;48.148;11.648;2022-12-07T07:12:15;14.27;;;9.53;;
8466;SDS011;4270;48.148;11.648;2022-12-07T07:14:40;15.10;;;9.60;;
8466;SDS011;4270;48.148;11.648;2022-12-07T07:17:05;16.27;;;10.97;;
8466;SDS011;4270;48.148;11.648;2022-12-07T07:19:30;15.20;;;10.07;;
8466;SDS011;4270;48.148;11.648;2022-12-07T07:21:56;17.20;;;11.20;;
8466;SDS011;4270;48.148;11.648;2022-12-07T07:24:21;15.83;;;9.90;;
8466;SDS011;4270;48.148;11.648;2022-12-07T07:26:46;16.80;;;10.70;;
8466;SDS011;4270;48.148;11.648;2022-12-07T07:29:11;18.50;;;9.33;;
8466;SDS011;4270;48.148;11.648;2022-12-07T07:31:36;16.93;;;10.80;;
8466;SDS011;4270;48.148;11.648;2022-12-07T07:34:02;12.13;;;8.77;;
8466;SDS011;4270;48.148;11.648;2022-12-07T07:36:27;14.93;;;9.33;;
8466;SDS011;4270;48.148;11.648;2022-12-07T07:38:52;18.80;;;10.40;;
8466;SDS011;4270;48.148;11.648;2022-12-07T07:41:18;16.60;;;9.07;;
8466;SDS011;4270;48.148;11.648;2022-12-07T07:43:43;15.80;;;9.57;;
8466;SDS011;4270;48.148;11.648;2022-12-07T07:46:08;15.40;;;9.60;;
8466;SDS011;4270;48.148;11.648;2022-12-07T07:48:33;13.60;;;9.37;;
8466;SDS011;4270;48.148;11.648;2022-12-07T07:50:59;15.23;;;9.40;;
8466;SDS011;4270;48.148;11.648;2022-12-07T07:53:24;14.93;;;9.60;;
8466;SDS011;4270;48.148;11.648;2022-12-07T07:55:50;14.73;;;8.67;;
8466;SDS011;4270;48.148;11.648;2022-12-07T07:58:16;14.10;;;9.90;;
8466;SDS011;4270;48.148;11.648;2022-12-07T08:00:41;13.83;;;9.50;;
8466;SDS011;4270;48.148;11.648;2022-12-07T08:03:06;14.90;;;10.57;;
8466;SDS011;4270;48.148;11.648;2022-12-07T08:05:32;15.63;;;10.03;;
8466;SDS011;4270;48.148;11.648;2022-12-07T08:07:57;16.63;;;9.87;;
8466;SDS011;4270;48.148;11.648;2022-12-07T08:10:22;17.93;;;9.70;;
8466;SDS011;4270;48.148;11.648;2022-12-07T08:12:47;15.40;;;9.50;;
8466;SDS011;4270;48.148;11.648;2022-12-07T08:15:39;15.20;;;9.93;;
8466;SDS011;4270;48.148;11.648;2022-12-07T08:18:05;14.90;;;9.53;;
8466;SDS011;4270;48.148;11.648;2022-12-07T08:20:30;15.10;;;9.40;;
8466;SDS011;4270;48.148;11.648;2022-12-07T08:22:56;16.73;;;9.80;;
8466;SDS011;4270;48.148;11.648;2022-12-07T08:25:22;15.60;;;9.70;;
8466;SDS011;4270;48.148;11.648;2022-12-07T08:27:47;13.67;;;9.77;;
8466;SDS011;4270;48.148;11.648;2022-12-07T08:30:13;15.47;;;10.10;;
8466;SDS011;4270;48.148;11.648;2022-12-07T08:32:38;16.17;;;9.90;;
8466;SDS011;4270;48.148;11.648;2022-12-07T08:35:03;16.30;;;10.43;;
8466;SDS011;4270;48.148;11.648;2022-12-07T08:37:29;19.70;;;11.30;;
8466;SDS011;4270;48.148;11.648;2022-12-07T08:39:54;13.17;;;9.33;;
8466;SDS011;4270;48.148;11.648;2022-12-07T08:42:19;19.13;;;11.03;;
8466;SDS011;4270;48.148;11.648;2022-12-07T08:44:45;15.17;;;9.97;;
8466;SDS011;4270;48.148;11.648;2022-12-07T08:47:10;26.73;;;16.13;;
8466;SDS011;4270;48.148;11.648;2022-12-07T08:49:38;38.47;;;22.70;;
8466;SDS011;4270;48.148;11.648;2022-12-07T08:52:04;23.30;;;15.60;;
8466;SDS011;4270;48.148;11.648;2022-12-07T08:54:29;20.10;;;12.73;;
8466;SDS011;4270;48.148;11.648;2022-12-07T08:56:55;19.30;;;13.30;;
8466;SDS011;4270;48.148;11.648;2022-12-07T08:59:21;19.60;;;12.37;;
8466;SDS011;4270;48.148;11.648;2022-12-07T09:01:47;18.43;;;12.40;;
8466;SDS011;4270;48.148;11.648;2022-12-07T09:04:12;19.93;;;10.60;;
8466;SDS011;4270;48.148;11.648;2022-12-07T09:06:37;18.03;;;11.27;;
8466;SDS011;4270;48.148;11.648;2022-12-07T09:09:03;18.53;;;11.80;;
8466;SDS011;4270;48.148;11.648;2022-12-07T09:11:29;16.27;;;11.07;;
8466;SDS011;4270;48.148;11.648;2022-12-07T09:13:54;16.30;;;10.10;;
8466;SDS011;4270;48.148;11.648;2022-12-07T09:16:19;18.20;;;11.07;;
8466;SDS011;4270;48.148;11.648;2022-12-07T09:18:45;18.33;;;10.83;;
8466;SDS011;4270;48.148;11.648;2022-12-07T09:21:10;17.77;;;10.80;;
8466;SDS011;4270;48.148;11.648;2022-12-07T09:23:35;20.50;;;12.10;;
8466;SDS011;4270;48.148;11.648;2022-12-07T09:26:01;19.63;;;11.77;;
8466;SDS011;4270;48.148;11.648;2022-12-07T09:28:26;18.83;;;11.17;;
8466;SDS011;4270;48.148;11.648;2022-12-07T09:30:52;19.63;;;11.10;;
8466;SDS011;4270;48.148;11.648;2022-12-07T09:33:17;21.90;;;10.70;;
8466;SDS011;4270;48.148;11.648;2022-12-07T09:37:20;15.40;;;10.60;;
8466;SDS011;4270;48.148;11.648;2022-12-07T09:39:46;20.00;;;12.37;;
8466;SDS011;4270;48.148;11.648;2022-12-07T09:42:17;15.60;;;10.43;;
8466;SDS011;4270;48.148;11.648;2022-12-07T09:44:44;30.60;;;16.03;;
8466;SDS011;4270;48.148;11.648;2022-12-07T09:47:09;18.60;;;11.33;;
8466;SDS011;4270;48.148;11.648;2022-12-07T09:49:35;14.23;;;9.70;;
8466;SDS011;4270;48.148;11.648;2022-12-07T09:54:29;17.13;;;10.10;;
8466;SDS011;4270;48.148;11.648;2022-12-07T09:56:55;15.67;;;9.80;;
8466;SDS011;4270;48.148;11.648;2022-12-07T09:59:21;14.67;;;9.57;;
8466;SDS011;4270;48.148;11.648;2022-12-07T10:01:47;15.33;;;10.07;;
8466;SDS011;4270;48.148;11.648;2022-12-07T10:04:20;12.33;;;7.80;;
8466;SDS011;4270;48.148;11.648;2022-12-07T10:06:46;19.83;;;10.03;;
8466;SDS011;4270;48.148;11.648;2022-12-07T10:09:13;47.37;;;13.37;;
8466;SDS011;4270;48.148;11.648;2022-12-07T10:14:23;16.23;;;9.63;;
8466;SDS011;4270;48.148;11.648;2022-12-07T10:16:48;16.80;;;8.40;;
8466;SDS011;4270;48.148;11.648;2022-12-07T10:19:18;18.23;;;8.90;;
8466;SDS011;4270;48.148;11.648;2022-12-07T10:21:58;13.77;;;8.97;;
8466;SDS011;4270;48.148;11.648;2022-12-07T10:24:24;11.27;;;7.50;;
8466;SDS011;4270;48.148;11.648;2022-12-07T10:26:53;13.83;;;9.13;;
8466;SDS011;4270;48.148;11.648;2022-12-07T10:31:54;14.43;;;7.63;;
8466;SDS011;4270;48.148;11.648;2022-12-07T10:34:22;10.07;;;7.03;;
8466;SDS011;4270;48.148;11.648;2022-12-07T10:36:49;11.53;;;7.80;;
8466;SDS011;4270;48.148;11.648;2022-12-07T10:39:16;29.67;;;21.30;;
8466;SDS011;4270;48.148;11.648;2022-12-07T10:41:52;128.57;;;68.07;;
8466;SDS011;4270;48.148;11.648;2022-12-07T10:44:22;137.70;;;73.27;;
8466;SDS011;4270;48.148;11.648;2022-12-07T10:49:38;20.57;;;14.00;;
8466;SDS011;4270;48.148;11.648;2022-12-07T11:14:58;10.97;;;6.80;;
8466;SDS011;4270;48.148;11.648;2022-12-07T11:17:31;10.40;;;6.70;;
8466;SDS011;4270;48.148;11.648;2022-12-07T11:30:23;27.73;;;16.60;;
8466;SDS011;4270;48.148;11.648;2022-12-07T11:36:00;24.50;;;15.23;;
8466;SDS011;4270;48.148;11.648;2022-12-07T11:38:37;7.73;;;5.60;;
8466;SDS011;4270;48.148;11.648;2022-12-07T11:41:08;8.30;;;5.30;;
8466;SDS011;4270;48.148;11.648;2022-12-07T11:46:24;8.73;;;5.40;;
8466;SDS011;4270;48.148;11.648;2022-12-07T11:51:20;8.43;;;5.57;;
8466;SDS011;4270;48.148;11.648;2022-12-07T11:53:51;8.50;;;4.90;;
8466;SDS011;4270;48.148;11.648;2022-12-07T11:56:21;9.07;;;5.73;;
8466;SDS011;4270;48.148;11.648;2022-12-07T11:58:49;8.13;;;5.30;;
8466;SDS011;4270;48.148;11.648;2022-12-07T12:04:19;8.40;;;5.83;;
8466;SDS011;4270;48.148;11.648;2022-12-07T12:06:48;8.10;;;5.23;;
8466;SDS011;4270;48.148;11.648;2022-12-07T12:09:14;7.00;;;4.60;;
8466;SDS011;4270;48.148;11.648;2022-12-07T12:22:09;8.30;;;4.93;;
8466;SDS011;4270;48.148;11.648;2022-12-07T12:24:37;6.63;;;5.03;;
8466;SDS011;4270;48.148;11.648;2022-12-07T12:27:04;7.50;;;5.17;;
8466;SDS011;4270;48.148;11.648;2022-12-07T12:32:06;8.27;;;5.40;;
8466;SDS011;4270;48.148;11.648;2022-12-07T12:36:58;13.03;;;5.73;;
8466;SDS011;4270;48.148;11.648;2022-12-07T12:39:24;10.07;;;6.27;;
8466;SDS011;4270;48.148;11.648;2022-12-07T12:41:51;9.00;;;5.57;;
8466;SDS011;4270;48.148;11.648;2022-12-07T12:56:43;16.57;;;6.90;;
8466;SDS011;4270;48.148;11.648;2022-12-07T13:01:46;8.57;;;5.80;;
8466;SDS011;4270;48.148;11.648;2022-12-07T13:04:21;11.87;;;6.13;;
8466;SDS011;4270;48.148;11.648;2022-12-07T13:06:47;11.20;;;6.87;;
8466;SDS011;4270;48.148;11.648;2022-12-07T13:09:20;11.67;;;5.73;;
8466;SDS011;4270;48.148;11.648;2022-12-07T13:11:49;23.80;;;14.40;;
8466;SDS011;4270;48.148;11.648;2022-12-07T13:16:59;12.47;;;6.43;;
8466;SDS011;4270;48.148;11.648;2022-12-07T13:27:40;9.57;;;6.10;;
8466;SDS011;4270;48.148;11.648;2022-12-07T13:30:16;11.43;;;6.90;;
8466;SDS011;4270;48.148;11.648;2022-12-07T13:32:41;12.43;;;6.77;;
8466;SDS011;4270;48.148;11.648;2022-12-07T13:37:51;9.70;;;6.40;;
8466;SDS011;4270;48.148;11.648;2022-12-07T13:40:17;9.80;;;6.40;;
8466;SDS011;4270;48.148;11.648;2022-12-07T13:42:44;12.17;;;6.90;;
8466;SDS011;4270;48.148;11.648;2022-12-07T13:45:28;9.77;;;5.60;;
8466;SDS011;4270;48.148;11.648;2022-12-07T13:48:19;10.60;;;6.23;;
8466;SDS011;4270;48.148;11.648;2022-12-07T13:50:52;10.47;;;6.30;;
8466;SDS011;4270;48.148;11.648;2022-12-07T13:53:17;8.60;;;5.80;;
8466;SDS011;4270;48.148;11.648;2022-12-07T13:55:46;7.87;;;4.63;;
8466;SDS011;4270;48.148;11.648;2022-12-07T13:58:12;13.87;;;6.70;;
8466;SDS011;4270;48.148;11.648;2022-12-07T14:00:37;8.27;;;5.70;;
8466;SDS011;4270;48.148;11.648;2022-12-07T14:05:39;13.70;;;6.53;;
8466;SDS011;4270;48.148;11.648;2022-12-07T14:08:20;10.23;;;6.13;;
8466;SDS011;4270;48.148;11.648;2022-12-07T14:13:29;10.73;;;6.83;;
8466;SDS011;4270;48.148;11.648;2022-12-07T14:15:55;10.80;;;6.43;;
8466;SDS011;4270;48.148;11.648;2022-12-07T14:18:29;9.53;;;5.43;;
8466;SDS011;4270;48.148;11.648;2022-12-07T14:21:05;10.73;;;6.00;;
8466;SDS011;4270;48.148;11.648;2022-12-07T14:23:30;11.27;;;7.00;;
8466;SDS011;4270;48.148;11.648;2022-12-07T14:26:04;11.00;;;6.03;;
8466;SDS011;4270;48.148;11.648;2022-12-07T14:28:35;12.00;;;6.30;;
8466;SDS011;4270;48.148;11.648;2022-12-07T14:31:01;10.43;;;6.53;;
8466;SDS011;4270;48.148;11.648;2022-12-07T14:33:27;11.93;;;6.93;;
8466;SDS011;4270;48.148;11.648;2022-12-07T14:35:53;11.13;;;6.27;;
8466;SDS011;4270;48.148;11.648;2022-12-07T14:38:22;13.80;;;7.20;;
8466;SDS011;4270;48.148;11.648;2022-12-07T14:40:49;13.67;;;7.00;;
8466;SDS011;4270;48.148;11.648;2022-12-07T14:43:15;11.17;;;6.80;;
8466;SDS011;4270;48.148;11.648;2022-12-07T14:45:41;11.87;;;6.97;;
8466;SDS011;4270;48.148;11.648;2022-12-07T14:48:13;12.87;;;7.63;;
8466;SDS011;4270;48.148;11.648;2022-12-07T14:50:41;13.33;;;6.67;;
8466;SDS011;4270;48.148;11.648;2022-12-07T14:53:17;13.70;;;8.30;;
8466;SDS011;4270;48.148;11.648;2022-12-07T14:55:43;13.40;;;8.00;;
8466;SDS011;4270;48.148;11.648;2022-12-07T14:58:14;14.07;;;8.77;;
8466;SDS011;4270;48.148;11.648;2022-12-07T15:00:40;16.53;;;9.13;;
8466;SDS011;4270;48.148;11.648;2022-12-07T15:03:05;16.73;;;9.63;;
8466;SDS011;4270;48.148;11.648;2022-12-07T15:05:30;19.30;;;9.37;;
8466;SDS011;4270;48.148;11.648;2022-12-07T15:07:56;15.07;;;9.53;;
8466;SDS011;4270;48.148;11.648;2022-12-07T15:10:22;17.83;;;10.80;;
8466;SDS011;4270;48.148;11.648;2022-12-07T15:12:48;12.77;;;8.37;;
8466;SDS011;4270;48.148;11.648;2022-12-07T15:15:13;18.23;;;8.17;;
8466;SDS011;4270;48.148;11.648;2022-12-07T15:17:39;11.10;;;6.73;;
8466;SDS011;4270;48.148;11.648;2022-12-07T15:20:05;12.17;;;6.50;;
8466;SDS011;4270;48.148;11.648;2022-12-07T15:22:30;11.63;;;6.63;;
8466;SDS011;4270;48.148;11.648;2022-12-07T15:24:56;10.67;;;6.20;;
8466;SDS011;4270;48.148;11.648;2022-12-07T15:27:21;13.80;;;7.20;;
8466;SDS011;4270;48.148;11.648;2022-12-07T15:29:47;12.13;;;6.90;;
8466;SDS011;4270;48.148;11.648;2022-12-07T15:32:12;12.23;;;6.90;;
8466;SDS011;4270;48.148;11.648;2022-12-07T15:34:37;14.20;;;7.30;;
8466;SDS011;4270;48.148;11.648;2022-12-07T15:37:02;10.70;;;6.23;;
8466;SDS011;4270;48.148;11.648;2022-12-07T15:39:28;11.50;;;6.17;;
8466;SDS011;4270;48.148;11.648;2022-12-07T15:41:53;10.17;;;6.00;;
8466;SDS011;4270;48.148;11.648;2022-12-07T15:44:18;9.90;;;6.87;;
8466;SDS011;4270;48.148;11.648;2022-12-07T15:47:03;10.87;;;6.67;;
8466;SDS011;4270;48.148;11.648;2022-12-07T15:49:28;14.80;;;7.67;;
8466;SDS011;4270;48.148;11.648;2022-12-07T15:51:54;18.07;;;8.73;;
8466;SDS011;4270;48.148;11.648;2022-12-07T15:54:23;15.10;;;8.50;;
8466;SDS011;4270;48.148;11.648;2022-12-07T15:56:49;15.60;;;8.70;;
8466;SDS011;4270;48.148;11.648;2022-12-07T15:59:14;15.40;;;8.50;;
8466;SDS011;4270;48.148;11.648;2022-12-07T16:01:40;12.97;;;7.80;;
8466;SDS011;4270;48.148;11.648;2022-12-07T16:04:05;14.27;;;7.53;;
8466;SDS011;4270;48.148;11.648;2022-12-07T16:06:30;17.27;;;7.80;;
8466;SDS011;4270;48.148;11.648;2022-12-07T16:08:56;16.63;;;8.93;;
8466;SDS011;4270;48.148;11.648;2022-12-07T16:11:21;14.63;;;7.00;;
8466;SDS011;4270;48.148;11.648;2022-12-07T16:13:46;11.60;;;7.43;;
8466;SDS011;4270;48.148;11.648;2022-12-07T16:16:13;20.67;;;11.17;;
8466;SDS011;4270;48.148;11.648;2022-12-07T16:18:39;21.33;;;9.27;;
8466;SDS011;4270;48.148;11.648;2022-12-07T16:21:04;15.53;;;9.40;;
8466;SDS011;4270;48.148;11.648;2022-12-07T16:23:30;14.47;;;8.17;;
8466;SDS011;4270;48.148;11.648;2022-12-07T16:26:03;17.20;;;9.97;;
8466;SDS011;4270;48.148;11.648;2022-12-07T16:28:28;14.73;;;9.53;;
8466;SDS011;4270;48.148;11.648;2022-12-07T16:30:59;15.27;;;8.77;;
8466;SDS011;4270;48.148;11.648;2022-12-07T16:33:24;17.67;;;9.00;;
8466;SDS011;4270;48.148;11.648;2022-12-07T16:35:50;14.67;;;9.40;;
8466;SDS011;4270;48.148;11.648;2022-12-07T16:38:15;17.87;;;9.77;;
8466;SDS011;4270;48.148;11.648;2022-12-07T16:40:40;19.57;;;10.70;;
8466;SDS011;4270;48.148;11.648;2022-12-07T16:43:05;20.43;;;10.97;;
8466;SDS011;4270;48.148;11.648;2022-12-07T16:45:31;19.00;;;10.40;;
8466;SDS011;4270;48.148;11.648;2022-12-07T16:47:56;17.80;;;11.23;;
8466;SDS011;4270;48.148;11.648;2022-12-07T16:50:21;19.47;;;11.03;;
8466;SDS011;4270;48.148;11.648;2022-12-07T16:52:46;18.63;;;9.50;;
8466;SDS011;4270;48.148;11.648;2022-12-07T16:55:11;20.73;;;10.67;;
8466;SDS011;4270;48.148;11.648;2022-12-07T16:57:37;22.63;;;11.30;;
8466;SDS011;4270;48.148;11.648;2022-12-07T17:00:03;19.13;;;10.47;;
8466;SDS011;4270;48.148;11.648;2022-12-07T17:02:29;17.93;;;10.40;;